createdAt,value
2018-04-25T00:00:23.364Z,21.80
2018-04-25T00:01:01.602Z,21.80
2018-04-25T00:01:38.840Z,21.80
2018-04-25T00:02:17.045Z,21.80
2018-04-25T00:02:54.294Z,21.80
2018-04-25T00:03:31.558Z,21.80
2018-04-25T00:04:09.002Z,21.80
2018-04-25T00:04:46.168Z,21.80
2018-04-25T00:05:23.553Z,21.80
2018-04-25T00:06:01.619Z,21.90
2018-04-25T00:06:39.021Z,21.80
2018-04-25T00:07:16.218Z,21.90
2018-04-25T00:07:54.409Z,21.80
2018-04-25T00:08:31.738Z,21.80
2018-04-25T00:09:08.983Z,21.90
2018-04-25T00:09:46.176Z,21.80
2018-04-25T00:10:23.583Z,21.80
2018-04-25T00:11:01.066Z,21.80
2018-04-25T00:11:38.395Z,21.90
2018-04-25T00:12:16.597Z,21.80
2018-04-25T00:12:53.910Z,21.80
2018-04-25T00:13:31.178Z,21.90
2018-04-25T00:14:08.597Z,21.90
2018-04-25T00:14:45.861Z,21.90
2018-04-25T00:15:24.131Z,21.90
2018-04-25T00:16:01.542Z,21.90
2018-04-25T00:16:39.678Z,21.90
2018-04-25T00:17:17.130Z,21.90
2018-04-25T00:17:55.360Z,21.90
2018-04-25T00:18:32.749Z,21.90
2018-04-25T00:19:10.933Z,21.90
2018-04-25T00:19:49.018Z,21.80
2018-04-25T00:20:26.450Z,21.90
2018-04-25T00:21:03.857Z,21.90
2018-04-25T00:21:41.180Z,21.90
2018-04-25T00:22:19.339Z,21.90
2018-04-25T00:22:57.371Z,21.90
2018-04-25T00:23:34.692Z,21.90
2018-04-25T00:24:12.905Z,21.90
2018-04-25T00:24:51.135Z,21.90
2018-04-25T00:25:28.478Z,21.90
2018-04-25T00:26:05.780Z,21.90
2018-04-25T00:26:43.954Z,21.80
2018-04-25T00:27:21.176Z,21.80
2018-04-25T00:27:58.587Z,21.80
2018-04-25T00:28:36.677Z,21.80
2018-04-25T00:29:14.884Z,21.80
2018-04-25T00:29:52.149Z,21.80
2018-04-25T00:30:29.614Z,21.70
2018-04-25T00:31:07.759Z,21.80
2018-04-25T00:31:45.061Z,21.80
2018-04-25T00:32:22.271Z,21.80
2018-04-25T00:32:59.682Z,21.80
2018-04-25T00:33:36.899Z,21.80
2018-04-25T00:34:14.384Z,21.80
2018-04-25T00:34:51.799Z,21.80
2018-04-25T00:35:29.051Z,21.80
2018-04-25T00:36:06.386Z,21.70
2018-04-25T00:36:44.516Z,21.80
2018-04-25T00:37:22.708Z,21.80
2018-04-25T00:38:00.731Z,21.70
2018-04-25T00:38:38.019Z,21.70
2018-04-25T00:39:15.548Z,21.70
2018-04-25T00:39:53.554Z,21.80
2018-04-25T00:40:30.943Z,21.80
2018-04-25T00:41:08.919Z,21.80
2018-04-25T00:41:46.323Z,21.80
2018-04-25T00:42:23.825Z,21.80
2018-04-25T00:43:01.039Z,21.80
2018-04-25T00:43:39.144Z,21.80
2018-04-25T00:44:16.597Z,21.80
2018-04-25T00:44:54.102Z,21.80
2018-04-25T00:45:31.541Z,21.90
2018-04-25T00:46:08.745Z,21.80
2018-04-25T00:46:46.120Z,21.80
2018-04-25T00:47:23.453Z,21.80
2018-04-25T00:48:00.626Z,21.80
2018-04-25T00:48:38.783Z,21.90
2018-04-25T00:49:17.002Z,21.90
2018-04-25T00:49:54.238Z,21.90
2018-04-25T00:50:32.444Z,21.80
2018-04-25T00:51:09.883Z,21.90
2018-04-25T00:51:47.911Z,21.80
2018-04-25T00:52:25.246Z,21.80
2018-04-25T00:53:02.433Z,21.90
2018-04-25T00:53:39.695Z,21.90
2018-04-25T00:54:16.869Z,21.90
2018-04-25T00:54:54.137Z,21.90
2018-04-25T00:55:31.894Z,21.90
2018-04-25T00:56:09.564Z,21.90
2018-04-25T00:56:46.828Z,21.90
2018-04-25T00:57:24.073Z,21.90
2018-04-25T00:58:01.443Z,21.90
2018-04-25T00:58:38.876Z,21.90
2018-04-25T00:59:16.245Z,21.90
2018-04-25T00:59:53.683Z,21.90
2018-04-25T01:00:31.146Z,21.90
2018-04-25T01:01:08.571Z,21.90
2018-04-25T01:01:45.782Z,21.90
2018-04-25T01:02:23.080Z,21.90
2018-04-25T01:03:01.205Z,21.90
2018-04-25T01:03:38.400Z,21.90
2018-04-25T01:04:15.702Z,21.90
2018-04-25T01:04:53.133Z,21.90
2018-04-25T01:05:31.331Z,21.90
2018-04-25T01:06:08.645Z,21.90
2018-04-25T01:06:45.851Z,21.80
2018-04-25T01:07:23.260Z,21.90
2018-04-25T01:08:00.645Z,21.90
2018-04-25T01:08:38.863Z,21.80
2018-04-25T01:09:16.823Z,21.90
2018-04-25T01:09:54.113Z,21.90
2018-04-25T01:10:32.275Z,21.80
2018-04-25T01:11:10.543Z,21.80
2018-04-25T01:11:47.845Z,21.80
2018-04-25T01:12:25.181Z,21.80
2018-04-25T01:13:02.451Z,21.80
2018-04-25T01:13:40.603Z,21.80
2018-04-25T01:14:18.781Z,21.80
2018-04-25T01:14:56.186Z,21.80
2018-04-25T01:15:33.397Z,21.80
2018-04-25T01:16:10.574Z,21.80
2018-04-25T01:16:47.747Z,21.80
2018-04-25T01:17:25.126Z,21.80
2018-04-25T01:18:02.606Z,21.80
2018-04-25T01:18:40.652Z,21.80
2018-04-25T01:19:17.965Z,21.80
2018-04-25T01:19:56.091Z,21.80
2018-04-25T01:20:33.431Z,21.70
2018-04-25T01:21:10.848Z,21.70
2018-04-25T01:21:48.975Z,21.80
2018-04-25T01:22:26.172Z,21.70
2018-04-25T01:23:03.591Z,21.70
2018-04-25T01:23:41.594Z,21.80
2018-04-25T01:24:18.918Z,21.70
2018-04-25T01:24:56.089Z,21.80
2018-04-25T01:25:33.265Z,21.70
2018-04-25T01:26:10.541Z,21.70
2018-04-25T01:26:48.706Z,21.70
2018-04-25T01:27:26.030Z,21.70
2018-04-25T01:28:03.273Z,21.70
2018-04-25T01:28:41.419Z,21.70
2018-04-25T01:29:19.607Z,21.80
2018-04-25T01:29:56.938Z,21.70
2018-04-25T01:30:34.397Z,21.70
2018-04-25T01:31:11.744Z,21.80
2018-04-25T01:31:49.937Z,21.80
2018-04-25T01:32:27.337Z,21.80
2018-04-25T01:33:04.493Z,21.80
2018-04-25T01:33:41.958Z,21.80
2018-04-25T01:34:20.065Z,21.70
2018-04-25T01:34:58.249Z,21.80
2018-04-25T01:35:35.600Z,21.70
2018-04-25T01:36:13.742Z,21.70
2018-04-25T01:36:51.822Z,21.80
2018-04-25T01:37:30.021Z,21.70
2018-04-25T01:38:07.369Z,21.70
2018-04-25T01:38:44.717Z,21.70
2018-04-25T01:39:22.855Z,21.80
2018-04-25T01:40:00.254Z,21.70
2018-04-25T01:40:37.566Z,21.80
2018-04-25T01:41:14.914Z,21.70
2018-04-25T01:41:52.333Z,21.70
2018-04-25T01:42:29.571Z,21.70
2018-04-25T01:43:06.904Z,21.70
2018-04-25T01:43:45.008Z,21.60
2018-04-25T01:44:22.199Z,21.60
2018-04-25T01:45:00.414Z,21.60
2018-04-25T01:45:38.473Z,21.60
2018-04-25T01:46:15.663Z,21.60
2018-04-25T01:46:52.902Z,21.70
2018-04-25T01:47:31.131Z,21.60
2018-04-25T01:48:08.376Z,21.60
2018-04-25T01:48:45.681Z,21.60
2018-04-25T01:49:22.825Z,21.60
2018-04-25T01:50:00.295Z,21.60
2018-04-25T01:50:37.532Z,21.60
2018-04-25T01:51:15.674Z,21.60
2018-04-25T01:51:53.032Z,21.60
2018-04-25T01:52:31.192Z,21.60
2018-04-25T01:53:08.347Z,21.60
2018-04-25T01:53:46.512Z,21.60
2018-04-25T01:54:23.763Z,21.60
2018-04-25T01:55:01.159Z,21.60
2018-04-25T01:55:39.356Z,21.50
2018-04-25T01:56:16.707Z,21.50
2018-04-25T01:56:54.823Z,21.50
2018-04-25T01:57:32.238Z,21.50
2018-04-25T01:58:09.447Z,21.50
2018-04-25T01:58:47.669Z,21.50
2018-04-25T01:59:25.897Z,21.40
2018-04-25T02:00:03.243Z,21.40
2018-04-25T02:00:40.360Z,21.40
2018-04-25T02:01:17.771Z,21.40
2018-04-25T02:01:55.147Z,21.40
2018-04-25T02:02:33.259Z,21.50
2018-04-25T02:03:11.382Z,21.50
2018-04-25T02:03:48.586Z,21.50
2018-04-25T02:04:26.104Z,21.40
2018-04-25T02:05:03.395Z,21.40
2018-04-25T02:05:40.803Z,21.40
2018-04-25T02:06:17.957Z,21.40
2018-04-25T02:06:55.333Z,21.40
2018-04-25T02:07:33.505Z,21.30
2018-04-25T02:08:10.875Z,21.30
2018-04-25T02:08:48.226Z,21.30
2018-04-25T02:09:26.268Z,21.30
2018-04-25T02:10:04.332Z,21.30
2018-04-25T02:10:41.534Z,21.30
2018-04-25T02:11:19.511Z,21.30
2018-04-25T02:11:57.479Z,21.30
2018-04-25T02:12:34.862Z,21.30
2018-04-25T02:13:12.267Z,21.30
2018-04-25T02:13:49.677Z,21.30
2018-04-25T02:14:26.875Z,21.40
2018-04-25T02:15:04.195Z,21.30
2018-04-25T02:15:42.366Z,21.30
2018-04-25T02:16:19.779Z,21.30
2018-04-25T02:16:57.840Z,21.20
2018-04-25T02:17:35.215Z,21.30
2018-04-25T02:18:12.478Z,21.30
2018-04-25T02:18:50.691Z,21.30
2018-04-25T02:19:27.946Z,21.30
2018-04-25T02:20:05.157Z,21.30
2018-04-25T02:20:42.369Z,21.30
2018-04-25T02:21:19.811Z,21.30
2018-04-25T02:21:57.879Z,21.30
2018-04-25T02:22:35.230Z,21.30
2018-04-25T02:23:12.678Z,21.30
2018-04-25T02:23:50.616Z,21.30
2018-04-25T02:24:27.972Z,21.30
2018-04-25T02:25:05.134Z,21.30
2018-04-25T02:25:42.394Z,21.30
2018-04-25T02:26:19.813Z,21.20
2018-04-25T02:26:58.012Z,21.20
2018-04-25T02:27:35.271Z,21.20
2018-04-25T02:28:13.470Z,21.20
2018-04-25T02:28:51.674Z,21.20
2018-04-25T02:29:29.811Z,21.20
2018-04-25T02:30:07.207Z,21.20
2018-04-25T02:30:44.673Z,21.20
2018-04-25T02:31:22.715Z,21.20
2018-04-25T02:32:00.042Z,21.20
2018-04-25T02:32:37.321Z,21.20
2018-04-25T02:33:15.459Z,21.20
2018-04-25T02:33:52.825Z,21.20
2018-04-25T02:34:31.031Z,21.20
2018-04-25T02:35:08.380Z,21.20
2018-04-25T02:35:45.584Z,21.30
2018-04-25T02:36:23.779Z,21.30
2018-04-25T02:37:01.134Z,21.30
2018-04-25T02:37:39.259Z,21.30
2018-04-25T02:38:16.513Z,21.30
2018-04-25T02:38:54.710Z,21.30
2018-04-25T02:39:31.944Z,21.30
2018-04-25T02:40:09.389Z,21.30
2018-04-25T02:40:46.663Z,21.30
2018-04-25T02:41:24.662Z,21.30
2018-04-25T02:42:01.870Z,21.30
2018-04-25T02:42:39.291Z,21.30
2018-04-25T02:43:16.696Z,21.40
2018-04-25T02:43:54.645Z,21.30
2018-04-25T02:44:31.947Z,21.30
2018-04-25T02:45:09.343Z,21.30
2018-04-25T02:45:47.548Z,21.40
2018-04-25T02:46:25.722Z,21.40
2018-04-25T02:47:03.049Z,21.40
2018-04-25T02:47:40.465Z,21.40
2018-04-25T02:48:18.437Z,21.40
2018-04-25T02:48:55.708Z,21.40
2018-04-25T02:49:32.960Z,21.40
2018-04-25T02:50:10.234Z,21.50
2018-04-25T02:50:48.454Z,21.40
2018-04-25T02:51:25.812Z,21.40
2018-04-25T02:52:03.127Z,21.40
2018-04-25T02:52:41.298Z,21.40
2018-04-25T02:53:18.714Z,21.40
2018-04-25T02:53:56.670Z,21.40
2018-04-25T02:54:34.104Z,21.40
2018-04-25T02:55:11.511Z,21.40
2018-04-25T02:55:48.973Z,21.40
2018-04-25T02:56:26.146Z,21.30
2018-04-25T02:57:04.166Z,21.40
2018-04-25T02:57:42.357Z,21.40
2018-04-25T02:58:20.567Z,21.40
2018-04-25T02:58:57.890Z,21.40
2018-04-25T02:59:35.213Z,21.40
2018-04-25T03:00:12.378Z,21.40
2018-04-25T03:00:50.472Z,21.40
2018-04-25T03:01:27.823Z,21.40
2018-04-25T03:02:05.238Z,21.30
2018-04-25T03:02:42.695Z,21.30
2018-04-25T03:03:20.790Z,21.30
2018-04-25T03:03:58.914Z,21.30
2018-04-25T03:04:36.213Z,21.30
2018-04-25T03:05:14.357Z,21.30
2018-04-25T03:05:51.615Z,21.30
2018-04-25T03:06:29.537Z,21.30
2018-04-25T03:07:06.870Z,21.30
2018-04-25T03:07:44.035Z,21.30
2018-04-25T03:08:21.399Z,21.30
2018-04-25T03:08:58.817Z,21.20
2018-04-25T03:09:37.121Z,21.20
2018-04-25T03:10:14.274Z,21.20
2018-04-25T03:10:51.640Z,21.20
2018-04-25T03:11:29.700Z,21.30
2018-04-25T03:12:07.619Z,21.30
2018-04-25T03:12:45.019Z,21.30
2018-04-25T03:13:22.406Z,21.30
2018-04-25T03:14:00.378Z,21.30
2018-04-25T03:14:37.758Z,21.30
2018-04-25T03:15:15.177Z,21.30
2018-04-25T03:15:52.332Z,21.30
2018-04-25T03:16:29.666Z,21.30
2018-04-25T03:17:07.075Z,21.30
2018-04-25T03:17:44.444Z,21.30
2018-04-25T03:18:22.453Z,21.30
2018-04-25T03:18:59.824Z,21.30
2018-04-25T03:19:37.200Z,21.30
2018-04-25T03:20:15.423Z,21.20
2018-04-25T03:20:53.492Z,21.20
2018-04-25T03:21:30.901Z,21.20
2018-04-25T03:22:09.079Z,21.30
2018-04-25T03:22:46.380Z,21.30
2018-04-25T03:23:23.523Z,21.30
2018-04-25T03:24:00.917Z,21.30
2018-04-25T03:24:38.101Z,21.30
2018-04-25T03:25:15.498Z,21.40
2018-04-25T03:25:52.976Z,21.40
2018-04-25T03:26:30.290Z,21.40
2018-04-25T03:27:07.637Z,21.50
2018-04-25T03:27:45.087Z,21.50
2018-04-25T03:28:22.364Z,21.50
2018-04-25T03:28:59.634Z,21.50
2018-04-25T03:29:37.075Z,21.50
2018-04-25T03:30:15.058Z,21.60
2018-04-25T03:30:52.537Z,21.60
2018-04-25T03:31:29.919Z,21.60
2018-04-25T03:32:07.354Z,21.60
2018-04-25T03:32:44.769Z,21.60
2018-04-25T03:33:22.099Z,21.70
2018-04-25T03:33:59.571Z,21.60
2018-04-25T03:34:37.851Z,21.60
2018-04-25T03:35:15.159Z,21.60
2018-04-25T03:35:52.525Z,21.70
2018-04-25T03:36:29.918Z,21.70
2018-04-25T03:37:07.381Z,21.70
2018-04-25T03:37:44.698Z,21.70
2018-04-25T03:38:21.874Z,21.70
2018-04-25T03:38:59.245Z,21.60
2018-04-25T03:39:36.488Z,21.60
2018-04-25T03:40:13.871Z,21.60
2018-04-25T03:40:51.122Z,21.60
2018-04-25T03:41:28.418Z,21.60
2018-04-25T03:42:05.837Z,21.60
2018-04-25T03:42:43.250Z,21.70
2018-04-25T03:43:21.287Z,21.60
2018-04-25T03:43:58.608Z,21.60
2018-04-25T03:44:36.021Z,21.60
2018-04-25T03:45:13.482Z,21.60
2018-04-25T03:45:51.627Z,21.50
2018-04-25T03:46:29.698Z,21.50
2018-04-25T03:47:07.894Z,21.60
2018-04-25T03:47:45.320Z,21.60
2018-04-25T03:48:23.266Z,21.60
2018-04-25T03:49:00.697Z,21.60
2018-04-25T03:49:38.147Z,21.60
2018-04-25T03:50:15.507Z,21.60
2018-04-25T03:50:53.700Z,21.50
2018-04-25T03:51:31.676Z,21.60
2018-04-25T03:52:09.876Z,21.60
2018-04-25T03:52:47.145Z,21.60
2018-04-25T03:53:24.378Z,21.60
2018-04-25T03:54:01.566Z,21.50
2018-04-25T03:54:38.745Z,21.50
2018-04-25T03:55:16.195Z,21.50
2018-04-25T03:55:54.371Z,21.50
2018-04-25T03:56:31.670Z,21.50
2018-04-25T03:57:09.806Z,21.50
2018-04-25T03:57:47.062Z,21.50
2018-04-25T03:58:24.442Z,21.50
2018-04-25T03:59:01.821Z,21.50
2018-04-25T03:59:40.041Z,21.50
2018-04-25T04:00:17.434Z,21.50
2018-04-25T04:00:54.879Z,21.50
2018-04-25T04:01:32.255Z,21.50
2018-04-25T04:02:09.655Z,21.50
2018-04-25T04:02:47.138Z,21.50
2018-04-25T04:03:25.322Z,21.50
2018-04-25T04:04:02.746Z,21.50
2018-04-25T04:04:39.973Z,21.50
2018-04-25T04:05:17.318Z,21.40
2018-04-25T04:05:55.262Z,21.40
2018-04-25T04:06:32.577Z,21.40
2018-04-25T04:07:10.806Z,21.40
2018-04-25T04:07:48.247Z,21.40
2018-04-25T04:08:26.499Z,21.40
2018-04-25T04:09:04.563Z,21.50
2018-04-25T04:09:41.878Z,21.50
2018-04-25T04:10:19.270Z,21.50
2018-04-25T04:10:57.409Z,21.40
2018-04-25T04:11:34.839Z,21.40
2018-04-25T04:12:12.063Z,21.40
2018-04-25T04:12:50.076Z,21.40
2018-04-25T04:13:27.406Z,21.40
2018-04-25T04:14:04.672Z,21.50
2018-04-25T04:14:42.813Z,21.50
2018-04-25T04:15:20.267Z,21.50
2018-04-25T04:15:57.505Z,21.50
2018-04-25T04:16:34.709Z,21.50
2018-04-25T04:17:12.944Z,21.50
2018-04-25T04:17:51.137Z,21.50
2018-04-25T04:18:28.549Z,21.50
2018-04-25T04:19:06.037Z,21.50
2018-04-25T04:19:43.217Z,21.50
2018-04-25T04:20:20.494Z,21.50
2018-04-25T04:20:57.813Z,21.40
2018-04-25T04:21:35.187Z,21.40
2018-04-25T04:22:13.250Z,21.40
2018-04-25T04:22:51.250Z,21.40
2018-04-25T04:23:28.658Z,21.40
2018-04-25T04:24:06.723Z,21.30
2018-04-25T04:24:44.932Z,21.40
2018-04-25T04:25:22.354Z,21.40
2018-04-25T04:26:00.498Z,21.40
2018-04-25T04:26:37.749Z,21.40
2018-04-25T04:27:15.146Z,21.40
2018-04-25T04:27:53.341Z,21.30
2018-04-25T04:28:30.748Z,21.30
2018-04-25T04:29:08.913Z,21.40
2018-04-25T04:29:47.018Z,21.40
2018-04-25T04:30:24.368Z,21.30
2018-04-25T04:31:02.612Z,21.40
2018-04-25T04:31:39.835Z,21.40
2018-04-25T04:32:16.985Z,21.40
2018-04-25T04:32:54.384Z,21.40
2018-04-25T04:33:31.578Z,21.40
2018-04-25T04:34:09.778Z,21.40
2018-04-25T04:34:47.000Z,21.50
2018-04-25T04:35:24.287Z,21.50
2018-04-25T04:36:01.724Z,21.50
2018-04-25T04:36:39.026Z,21.50
2018-04-25T04:37:16.280Z,21.50
2018-04-25T04:37:53.669Z,21.50
2018-04-25T04:38:31.001Z,21.50
2018-04-25T04:39:08.334Z,21.50
2018-04-25T04:39:45.742Z,21.50
2018-04-25T04:40:23.075Z,21.50
2018-04-25T04:41:01.116Z,21.50
2018-04-25T04:41:38.239Z,21.50
2018-04-25T04:42:15.755Z,21.50
2018-04-25T04:42:53.090Z,21.50
2018-04-25T04:43:30.517Z,21.60
2018-04-25T04:44:07.931Z,21.50
2018-04-25T04:44:45.350Z,22.00
2018-04-25T04:45:23.355Z,21.50
2018-04-25T04:46:01.578Z,21.50
2018-04-25T04:46:38.932Z,21.50
2018-04-25T04:47:16.306Z,21.50
2018-04-25T04:47:54.504Z,21.50
2018-04-25T04:48:32.505Z,21.60
2018-04-25T04:49:09.866Z,21.60
2018-04-25T04:49:47.084Z,21.60
2018-04-25T04:50:25.305Z,21.60
2018-04-25T04:51:02.731Z,21.60
2018-04-25T04:51:40.819Z,21.60
2018-04-25T04:52:19.035Z,21.60
2018-04-25T04:52:57.199Z,21.70
2018-04-25T04:53:34.662Z,21.70
2018-04-25T04:54:12.878Z,21.60
2018-04-25T04:54:51.066Z,21.70
2018-04-25T04:55:28.321Z,21.60
2018-04-25T04:56:06.557Z,21.60
2018-04-25T04:56:43.987Z,21.60
2018-04-25T04:57:21.174Z,21.60
2018-04-25T04:57:58.602Z,21.60
2018-04-25T04:58:35.745Z,21.50
2018-04-25T04:59:14.016Z,21.50
2018-04-25T04:59:51.203Z,21.50
2018-04-25T05:00:28.584Z,21.50
2018-04-25T05:01:06.685Z,21.50
2018-04-25T05:01:44.776Z,21.60
2018-04-25T05:02:22.033Z,21.50
2018-04-25T05:02:59.533Z,21.50
2018-04-25T05:03:37.717Z,21.60
2018-04-25T05:04:15.126Z,21.50
2018-04-25T05:04:53.289Z,21.50
2018-04-25T05:05:31.415Z,21.50
2018-04-25T05:06:08.648Z,21.50
2018-04-25T05:06:45.913Z,21.50
2018-04-25T05:07:23.128Z,21.50
2018-04-25T05:08:00.530Z,21.50
2018-04-25T05:08:38.647Z,21.50
2018-04-25T05:09:15.981Z,21.50
2018-04-25T05:09:54.149Z,21.50
2018-04-25T05:10:31.539Z,21.50
2018-04-25T05:11:08.904Z,21.50
2018-04-25T05:11:47.091Z,21.50
2018-04-25T05:12:25.193Z,21.50
2018-04-25T05:13:02.543Z,21.50
2018-04-25T05:13:39.730Z,21.50
2018-04-25T05:14:16.881Z,21.50
2018-04-25T05:14:55.110Z,21.50
2018-04-25T05:15:32.453Z,21.50
2018-04-25T05:16:09.819Z,21.50
2018-04-25T05:16:47.221Z,21.50
2018-04-25T05:17:24.590Z,21.50
2018-04-25T05:18:02.067Z,21.50
2018-04-25T05:18:39.337Z,21.50
2018-04-25T05:19:16.525Z,21.50
2018-04-25T05:19:53.904Z,21.50
2018-04-25T05:20:31.347Z,21.50
2018-04-25T05:21:08.534Z,21.50
2018-04-25T05:21:45.682Z,21.50
2018-04-25T05:22:22.914Z,21.50
2018-04-25T05:23:00.142Z,21.50
2018-04-25T05:23:37.552Z,21.50
2018-04-25T05:24:14.961Z,21.50
2018-04-25T05:24:53.129Z,21.60
2018-04-25T05:25:30.543Z,21.60
2018-04-25T05:26:07.710Z,21.60
2018-04-25T05:26:45.662Z,21.60
2018-04-25T05:27:23.030Z,21.60
2018-04-25T05:28:01.239Z,21.60
2018-04-25T05:28:38.633Z,21.60
2018-04-25T05:29:15.853Z,21.60
2018-04-25T05:29:53.246Z,21.60
2018-04-25T05:30:30.587Z,21.60
2018-04-25T05:31:07.999Z,21.60
2018-04-25T05:31:46.033Z,21.50
2018-04-25T05:32:24.094Z,21.60
2018-04-25T05:33:01.533Z,21.60
2018-04-25T05:33:39.506Z,21.60
2018-04-25T05:34:16.903Z,21.60
2018-04-25T05:34:55.109Z,21.50
2018-04-25T05:35:32.385Z,21.50
2018-04-25T05:36:09.784Z,21.50
2018-04-25T05:36:47.812Z,21.50
2018-04-25T05:37:25.145Z,21.50
2018-04-25T05:38:02.376Z,21.50
2018-04-25T05:38:39.671Z,21.50
2018-04-25T05:39:16.872Z,21.50
2018-04-25T05:39:54.133Z,21.50
2018-04-25T05:40:32.173Z,21.50
2018-04-25T05:41:09.511Z,21.50
2018-04-25T05:41:46.816Z,21.50
2018-04-25T05:42:23.999Z,21.50
2018-04-25T05:43:01.217Z,21.50
2018-04-25T05:43:39.425Z,21.50
2018-04-25T05:44:16.821Z,21.50
2018-04-25T05:44:55.026Z,21.40
2018-04-25T05:45:32.246Z,21.40
2018-04-25T05:46:10.383Z,21.40
2018-04-25T05:46:47.888Z,21.40
2018-04-25T05:47:25.965Z,21.40
2018-04-25T05:48:03.396Z,21.40
2018-04-25T05:48:41.428Z,21.40
2018-04-25T05:49:19.413Z,21.40
2018-04-25T05:49:57.431Z,21.40
2018-04-25T05:50:35.487Z,21.40
2018-04-25T05:51:13.599Z,21.40
2018-04-25T05:51:50.970Z,21.40
2018-04-25T05:52:28.365Z,21.40
2018-04-25T05:53:06.443Z,21.30
2018-04-25T05:53:43.691Z,21.30
2018-04-25T05:54:20.978Z,21.30
2018-04-25T05:54:58.232Z,21.30
2018-04-25T05:55:35.410Z,21.30
2018-04-25T05:56:12.835Z,21.30
2018-04-25T05:56:50.274Z,21.30
2018-04-25T05:57:27.622Z,21.30
2018-04-25T05:58:05.018Z,21.30
2018-04-25T05:58:42.293Z,21.30
2018-04-25T05:59:19.763Z,21.20
2018-04-25T05:59:57.089Z,21.20
2018-04-25T06:00:35.262Z,21.30
2018-04-25T06:01:12.534Z,21.30
2018-04-25T06:01:50.762Z,21.30
2018-04-25T06:02:28.212Z,21.30
2018-04-25T06:03:05.350Z,21.30
2018-04-25T06:03:42.506Z,21.30
2018-04-25T06:04:19.865Z,21.30
2018-04-25T06:04:57.194Z,21.20
2018-04-25T06:05:34.496Z,21.30
2018-04-25T06:06:12.463Z,21.30
2018-04-25T06:06:50.650Z,21.30
2018-04-25T06:07:28.113Z,21.30
2018-04-25T06:08:05.353Z,21.30
2018-04-25T06:08:43.502Z,21.40
2018-04-25T06:09:21.714Z,21.40
2018-04-25T06:09:59.130Z,21.40
2018-04-25T06:10:37.281Z,21.40
2018-04-25T06:11:14.713Z,21.40
2018-04-25T06:11:52.065Z,21.40
2018-04-25T06:12:30.316Z,21.40
2018-04-25T06:13:08.351Z,21.30
2018-04-25T06:13:45.734Z,21.30
2018-04-25T06:14:23.791Z,21.30
2018-04-25T06:15:01.263Z,21.30
2018-04-25T06:15:38.774Z,21.30
2018-04-25T06:16:16.933Z,21.30
2018-04-25T06:16:54.387Z,21.30
2018-04-25T06:17:31.699Z,21.30
2018-04-25T06:18:09.127Z,21.30
2018-04-25T06:18:46.503Z,21.20
2018-04-25T06:19:23.679Z,21.30
2018-04-25T06:20:00.965Z,21.20
2018-04-25T06:20:38.439Z,21.20
2018-04-25T06:21:15.759Z,21.20
2018-04-25T06:21:53.948Z,21.20
2018-04-25T06:22:32.031Z,21.20
2018-04-25T06:23:09.476Z,21.20
2018-04-25T06:23:47.629Z,21.10
2018-04-25T06:24:24.990Z,21.10
2018-04-25T06:25:02.408Z,21.10
2018-04-25T06:25:39.636Z,21.10
2018-04-25T06:26:17.038Z,21.10
2018-04-25T06:26:54.409Z,21.20
2018-04-25T06:27:31.670Z,21.20
2018-04-25T06:28:09.924Z,21.20
2018-04-25T06:28:47.018Z,21.20
2018-04-25T06:29:24.394Z,21.20
2018-04-25T06:30:01.557Z,21.20
2018-04-25T06:30:38.947Z,21.20
2018-04-25T06:31:16.399Z,21.10
2018-04-25T06:31:53.801Z,21.10
2018-04-25T06:32:30.987Z,21.10
2018-04-25T06:33:08.261Z,21.10
2018-04-25T06:33:45.661Z,21.10
2018-04-25T06:34:23.054Z,21.10
2018-04-25T06:35:00.990Z,21.00
2018-04-25T06:35:38.405Z,21.00
2018-04-25T06:36:16.575Z,21.00
2018-04-25T06:36:54.019Z,21.00
2018-04-25T06:37:31.267Z,21.00
2018-04-25T06:38:08.680Z,21.10
2018-04-25T06:38:46.590Z,21.10
2018-04-25T06:39:24.743Z,21.10
2018-04-25T06:40:02.017Z,21.10
2018-04-25T06:40:40.284Z,21.20
2018-04-25T06:41:17.550Z,21.20
2018-04-25T06:41:55.739Z,21.20
2018-04-25T06:42:33.931Z,21.10
2018-04-25T06:43:11.375Z,21.10
2018-04-25T06:43:49.595Z,21.10
2018-04-25T06:44:27.779Z,21.10
2018-04-25T06:45:05.297Z,21.20
2018-04-25T06:45:42.514Z,21.20
2018-04-25T06:46:19.639Z,21.20
2018-04-25T06:46:57.803Z,21.20
2018-04-25T06:47:35.190Z,21.20
2018-04-25T06:48:12.430Z,21.20
2018-04-25T06:48:49.815Z,21.20
2018-04-25T06:49:27.079Z,21.20
2018-04-25T06:50:05.322Z,21.30
2018-04-25T06:50:43.538Z,21.30
2018-04-25T06:51:20.724Z,21.30
2018-04-25T06:51:57.882Z,21.30
2018-04-25T06:52:36.046Z,21.20
2018-04-25T06:53:13.406Z,21.20
2018-04-25T06:53:50.642Z,21.20
2018-04-25T06:54:28.824Z,21.20
2018-04-25T06:55:06.027Z,21.20
2018-04-25T06:55:43.321Z,21.20
2018-04-25T06:56:20.580Z,21.20
2018-04-25T06:56:58.018Z,21.20
2018-04-25T06:57:36.181Z,21.10
2018-04-25T06:58:13.431Z,21.10
2018-04-25T06:58:51.649Z,21.00
2018-04-25T06:59:28.872Z,21.00
2018-04-25T07:00:06.202Z,21.00
2018-04-25T07:00:44.433Z,21.00
2018-04-25T07:01:21.731Z,21.00
2018-04-25T07:01:59.756Z,21.10
2018-04-25T07:02:37.198Z,21.10
2018-04-25T07:03:14.584Z,21.10
2018-04-25T07:03:52.011Z,21.10
2018-04-25T07:04:29.207Z,21.10
2018-04-25T07:05:07.150Z,21.00
2018-04-25T07:05:45.253Z,21.00
2018-04-25T07:06:22.550Z,21.00
2018-04-25T07:06:59.755Z,20.90
2018-04-25T07:07:37.049Z,20.90
2018-04-25T07:08:14.472Z,21.00
2018-04-25T07:08:51.599Z,21.00
2018-04-25T07:09:28.805Z,21.00
2018-04-25T07:10:06.890Z,20.90
2018-04-25T07:10:44.136Z,20.80
2018-04-25T07:11:21.594Z,20.80
2018-04-25T07:11:59.640Z,20.80
2018-04-25T07:12:36.984Z,20.90
2018-04-25T07:13:14.157Z,20.90
2018-04-25T07:13:51.608Z,20.90
2018-04-25T07:14:28.822Z,21.00
2018-04-25T07:15:05.971Z,21.00
2018-04-25T07:15:43.153Z,21.00
2018-04-25T07:16:20.451Z,20.90
2018-04-25T07:16:57.891Z,20.90
2018-04-25T07:17:35.370Z,20.90
2018-04-25T07:18:12.783Z,21.00
2018-04-25T07:18:50.230Z,21.00
2018-04-25T07:19:27.695Z,21.00
2018-04-25T07:20:05.095Z,21.10
2018-04-25T07:20:42.584Z,21.10
2018-04-25T07:21:19.755Z,21.20
2018-04-25T07:21:57.658Z,21.20
2018-04-25T07:22:35.058Z,21.30
2018-04-25T07:23:12.195Z,21.20
2018-04-25T07:23:49.465Z,21.20
2018-04-25T07:24:26.723Z,21.30
2018-04-25T07:25:04.942Z,21.30
2018-04-25T07:25:42.242Z,21.30
2018-04-25T07:26:19.461Z,21.30
2018-04-25T07:26:56.685Z,21.30
2018-04-25T07:27:34.063Z,21.30
2018-04-25T07:28:11.486Z,21.30
2018-04-25T07:28:48.922Z,21.30
2018-04-25T07:29:26.208Z,21.30
2018-04-25T07:30:04.356Z,21.30
2018-04-25T07:30:41.607Z,21.30
2018-04-25T07:31:19.819Z,21.30
2018-04-25T07:31:57.185Z,21.30
2018-04-25T07:32:35.292Z,21.30
2018-04-25T07:33:13.319Z,21.30
2018-04-25T07:33:51.372Z,21.30
2018-04-25T07:34:28.835Z,21.30
2018-04-25T07:35:06.750Z,21.30
2018-04-25T07:35:44.001Z,21.30
2018-04-25T07:36:21.356Z,21.30
2018-04-25T07:36:58.545Z,21.30
2018-04-25T07:37:36.765Z,21.20
2018-04-25T07:38:14.175Z,21.20
2018-04-25T07:38:52.238Z,21.10
2018-04-25T07:39:29.495Z,21.10
2018-04-25T07:40:06.749Z,21.10
2018-04-25T07:40:44.139Z,21.10
2018-04-25T07:41:21.603Z,21.10
2018-04-25T07:41:59.636Z,21.00
2018-04-25T07:42:37.732Z,21.10
2018-04-25T07:43:15.155Z,21.10
2018-04-25T07:43:52.510Z,21.20
2018-04-25T07:44:30.472Z,21.20
2018-04-25T07:45:07.730Z,21.20
2018-04-25T07:45:45.127Z,21.30
2018-04-25T07:46:23.126Z,21.40
2018-04-25T07:47:00.565Z,21.40
2018-04-25T07:47:37.863Z,21.40
2018-04-25T07:48:15.250Z,21.40
2018-04-25T07:48:53.255Z,21.40
2018-04-25T07:49:30.561Z,21.40
2018-04-25T07:50:07.931Z,21.40
2018-04-25T07:50:46.066Z,21.50
2018-04-25T07:51:23.470Z,21.50
2018-04-25T07:52:01.472Z,21.60
2018-04-25T07:52:39.425Z,21.50
2018-04-25T07:53:16.748Z,21.50
2018-04-25T07:53:53.991Z,21.60
2018-04-25T07:54:31.347Z,21.60
2018-04-25T07:55:08.700Z,21.60
2018-04-25T07:55:46.100Z,21.60
2018-04-25T07:56:24.213Z,21.60
2018-04-25T07:57:01.568Z,21.60
2018-04-25T07:57:38.771Z,21.60
2018-04-25T07:58:16.982Z,21.60
2018-04-25T07:58:54.206Z,21.60
2018-04-25T07:59:31.622Z,21.50
2018-04-25T08:00:09.813Z,21.40
2018-04-25T08:00:48.001Z,21.40
2018-04-25T08:01:25.422Z,21.40
2018-04-25T08:02:03.558Z,21.40
2018-04-25T08:02:41.764Z,21.30
2018-04-25T08:03:18.989Z,21.30
2018-04-25T08:03:57.011Z,21.30